createdAt,value
2017-10-20T00:00:03.196Z,68.3
2017-10-20T00:01:05.669Z,68.1
2017-10-20T00:02:08.044Z,68.2
2017-10-20T00:03:10.431Z,68.1
2017-10-20T00:04:12.806Z,68.1
2017-10-20T00:05:15.416Z,68.1
2017-10-20T00:06:17.792Z,68.3
2017-10-20T00:07:20.178Z,68
2017-10-20T00:08:22.565Z,68.4
2017-10-20T00:09:24.957Z,68
2017-10-20T00:10:27.314Z,67.9
2017-10-20T00:11:29.806Z,68.1
2017-10-20T00:12:32.359Z,68.4
2017-10-20T00:13:34.735Z,68.1
2017-10-20T00:14:37.105Z,68.1
2017-10-20T00:15:39.484Z,68.1
2017-10-20T00:16:41.865Z,68.4
2017-10-20T00:17:44.249Z,68.2
2017-10-20T00:18:46.630Z,68
2017-10-20T00:19:49.030Z,68.3
2017-10-20T00:20:51.619Z,68
2017-10-20T00:21:54.054Z,68.2
2017-10-20T00:22:56.423Z,68.1
2017-10-20T00:23:58.796Z,68.2
2017-10-20T00:25:01.188Z,68.1
2017-10-20T00:26:04.084Z,67.8
2017-10-20T00:27:06.479Z,68.2
2017-10-20T00:28:08.881Z,68.3
2017-10-20T00:29:11.310Z,68.1
2017-10-20T00:30:13.672Z,68.1
2017-10-20T00:31:16.275Z,68.1
2017-10-20T00:32:18.645Z,68
2017-10-20T00:33:21.062Z,68.2
2017-10-20T00:34:23.467Z,68.2
2017-10-20T00:35:25.837Z,68.4
2017-10-20T00:36:28.416Z,68.4
2017-10-20T00:37:30.786Z,68.4
2017-10-20T00:38:33.212Z,68.3
2017-10-20T00:39:36.284Z,68.2
2017-10-20T00:40:38.698Z,68.2
2017-10-20T00:41:41.093Z,68.3
2017-10-20T00:42:43.492Z,68.2
2017-10-20T00:43:45.874Z,67.8
2017-10-20T00:44:48.255Z,68.2
2017-10-20T00:45:50.613Z,68.2
2017-10-20T00:46:53.018Z,68.3
2017-10-20T00:47:55.410Z,68.4
2017-10-20T00:48:57.787Z,68.5
2017-10-20T00:50:00.157Z,68.3
2017-10-20T00:51:02.732Z,68.1
2017-10-20T00:52:05.143Z,68.6
2017-10-20T00:53:07.570Z,68.4
2017-10-20T00:54:09.941Z,68.7
2017-10-20T00:55:12.515Z,68.7
2017-10-20T00:56:14.889Z,68.6
2017-10-20T00:57:17.290Z,68.5
2017-10-20T00:58:19.704Z,68.5
2017-10-20T00:59:22.072Z,68.7
2017-10-20T01:00:24.500Z,68.7
2017-10-20T01:01:26.880Z,68.8
2017-10-20T01:02:29.272Z,68.8
2017-10-20T01:03:31.668Z,68.6
2017-10-20T01:04:34.059Z,68.8
2017-10-20T01:05:36.590Z,68.7
2017-10-20T01:06:38.977Z,68.8
2017-10-20T01:07:41.713Z,68.8
2017-10-20T01:08:44.076Z,68.7
2017-10-20T01:09:46.451Z,68.5
2017-10-20T01:10:48.870Z,68.8
2017-10-20T01:11:51.666Z,68.3
2017-10-20T01:12:54.042Z,68.7
2017-10-20T01:13:56.425Z,68.7
2017-10-20T01:14:59.257Z,68.8
2017-10-20T01:16:01.661Z,68.9
2017-10-20T01:17:04.033Z,68.8
2017-10-20T01:18:06.408Z,69
2017-10-20T01:19:09.003Z,68.9
2017-10-20T01:20:11.416Z,68.9
2017-10-20T01:21:13.787Z,68.6
2017-10-20T01:22:16.164Z,68.9
2017-10-20T01:23:18.539Z,68.9
2017-10-20T01:24:21.182Z,68.8
2017-10-20T01:25:23.574Z,68.8
2017-10-20T01:26:25.964Z,68.9
2017-10-20T01:27:28.356Z,68.8
2017-10-20T01:28:30.726Z,68.9
2017-10-20T01:29:33.228Z,68.9
2017-10-20T01:30:35.650Z,69
2017-10-20T01:31:38.018Z,68.9
2017-10-20T01:32:40.415Z,68.8
2017-10-20T01:33:42.821Z,68.8
2017-10-20T01:34:45.219Z,68.8
2017-10-20T01:35:47.968Z,68.7
2017-10-20T01:36:50.336Z,68.8
2017-10-20T01:37:52.767Z,69.1
2017-10-20T01:38:55.352Z,69
2017-10-20T01:39:57.746Z,69.1
2017-10-20T01:41:00.111Z,69.1
2017-10-20T01:42:02.488Z,69.1
2017-10-20T01:43:05.105Z,68.9
2017-10-20T01:44:07.468Z,68.9
2017-10-20T01:45:09.861Z,68.8
2017-10-20T01:46:12.233Z,68.9
2017-10-20T01:47:14.606Z,68.9
2017-10-20T01:48:17.014Z,69
2017-10-20T01:49:19.382Z,69.1
2017-10-20T01:50:21.768Z,69
2017-10-20T01:51:24.188Z,69
2017-10-20T01:52:26.556Z,69.1
2017-10-20T01:53:29.042Z,69
2017-10-20T01:54:31.420Z,69.1
2017-10-20T01:55:33.807Z,69.1
2017-10-20T01:56:36.210Z,69.1
2017-10-20T01:57:38.594Z,69.1
2017-10-20T01:58:41.150Z,69.3
2017-10-20T01:59:43.517Z,69.3
2017-10-20T02:00:45.934Z,69.2
2017-10-20T02:01:48.359Z,69.2
2017-10-20T02:02:50.733Z,69.3
2017-10-20T02:03:53.456Z,69.4
2017-10-20T02:04:55.830Z,69.5
2017-10-20T02:05:58.215Z,69.4
2017-10-20T02:07:00.605Z,69.4
2017-10-20T02:08:03.131Z,69.4
2017-10-20T02:09:05.532Z,69.3
2017-10-20T02:10:07.915Z,69.3
2017-10-20T02:11:10.323Z,69.4
2017-10-20T02:12:12.883Z,69.4
2017-10-20T02:13:15.250Z,69.5
2017-10-20T02:14:17.631Z,69.5
2017-10-20T02:15:20.025Z,69.5
2017-10-20T02:16:22.404Z,69.5
2017-10-20T02:17:24.780Z,69.6
2017-10-20T02:18:27.519Z,69.7
2017-10-20T02:19:29.930Z,69.8
2017-10-20T02:20:32.412Z,69.8
2017-10-20T02:21:34.787Z,69.8
2017-10-20T02:22:37.426Z,69.9
2017-10-20T02:23:39.807Z,69.9
2017-10-20T02:24:42.192Z,69.9
2017-10-20T02:25:44.595Z,69.8
2017-10-20T02:26:46.968Z,69.7
2017-10-20T02:27:49.405Z,69.8
2017-10-20T02:28:51.778Z,69.7
2017-10-20T02:29:54.175Z,69.8
2017-10-20T02:30:56.563Z,69.7
2017-10-20T02:31:59.508Z,69.7
2017-10-20T02:33:01.891Z,69.9
2017-10-20T02:34:04.291Z,69.9
2017-10-20T02:35:07.030Z,70
2017-10-20T02:36:09.479Z,70
2017-10-20T02:37:12.230Z,70
2017-10-20T02:38:14.604Z,70
2017-10-20T02:39:16.985Z,70.1
2017-10-20T02:40:19.400Z,70.1
2017-10-20T02:41:21.849Z,70
2017-10-20T02:42:24.231Z,70
2017-10-20T02:43:27.030Z,70.2
2017-10-20T02:44:29.408Z,70.2
2017-10-20T02:45:31.778Z,70.2
2017-10-20T02:46:34.165Z,70.3
2017-10-20T02:47:36.539Z,70.2
2017-10-20T02:48:38.917Z,70.2
2017-10-20T02:49:41.283Z,70.1
2017-10-20T02:50:43.661Z,70.1
2017-10-20T02:51:46.040Z,70
2017-10-20T02:52:48.440Z,70.1
2017-10-20T02:53:50.820Z,70.2
2017-10-20T02:54:53.205Z,70.2
2017-10-20T02:55:55.626Z,70.1
2017-10-20T02:56:58.010Z,70.2
2017-10-20T02:58:00.425Z,70.3
2017-10-20T02:59:02.811Z,70.3
2017-10-20T03:00:05.187Z,70.2
2017-10-20T03:01:07.581Z,70.4
2017-10-20T03:02:09.989Z,70.2
2017-10-20T03:03:12.426Z,70.3
2017-10-20T03:04:14.813Z,70.3
2017-10-20T03:05:17.186Z,70.2
2017-10-20T03:06:19.543Z,70
2017-10-20T03:07:21.929Z,70.1
2017-10-20T03:08:24.307Z,70
2017-10-20T03:09:26.730Z,70.1
2017-10-20T03:10:29.138Z,70.1
2017-10-20T03:11:31.525Z,70
2017-10-20T03:12:33.943Z,70.1
2017-10-20T03:13:36.302Z,70.1
2017-10-20T03:14:38.683Z,70.1
2017-10-20T03:15:41.065Z,70.1
2017-10-20T03:16:43.433Z,70
2017-10-20T03:17:45.806Z,70
2017-10-20T03:18:48.173Z,70.1
2017-10-20T03:19:50.550Z,70.1
2017-10-20T03:20:53.650Z,70.1
2017-10-20T03:21:56.045Z,70.2
2017-10-20T03:22:58.419Z,70.1
2017-10-20T03:24:00.813Z,70.1
2017-10-20T03:25:03.168Z,70.1
2017-10-20T03:26:05.552Z,70.1
2017-10-20T03:27:07.934Z,70.1
2017-10-20T03:28:10.305Z,70.2
2017-10-20T03:29:13.426Z,70.2
2017-10-20T03:30:15.835Z,70.3
2017-10-20T03:31:18.196Z,70.2
2017-10-20T03:32:20.594Z,70.1
2017-10-20T03:33:22.978Z,70.1
2017-10-20T03:34:25.365Z,70.2
2017-10-20T03:35:27.778Z,70.1
2017-10-20T03:36:30.154Z,70.1
2017-10-20T03:37:32.560Z,70.1
2017-10-20T03:38:34.949Z,70.1
2017-10-20T03:39:37.354Z,70.2
2017-10-20T03:40:39.782Z,70.3
2017-10-20T03:41:42.596Z,70.3
2017-10-20T03:42:44.968Z,70.3
2017-10-20T03:43:47.361Z,70.3
2017-10-20T03:44:49.746Z,70.3
2017-10-20T03:45:52.123Z,70.2
2017-10-20T03:46:54.520Z,70.3
2017-10-20T03:47:56.895Z,70.4
2017-10-20T03:48:59.270Z,70.2
2017-10-20T03:50:02.017Z,70.2
2017-10-20T03:51:04.595Z,70.2
2017-10-20T03:52:07.326Z,70.3
2017-10-20T03:53:09.727Z,70.4
2017-10-20T03:54:12.096Z,70.4
2017-10-20T03:55:14.494Z,70.4
2017-10-20T03:56:16.878Z,70.5
2017-10-20T03:57:19.268Z,70.4
2017-10-20T03:58:21.699Z,70.5
2017-10-20T03:59:24.071Z,70.5
2017-10-20T04:00:26.500Z,70.5
2017-10-20T04:01:28.868Z,70.4
2017-10-20T04:02:31.269Z,70.5
2017-10-20T04:03:33.689Z,70.5
2017-10-20T04:04:36.072Z,70.5
2017-10-20T04:05:38.489Z,70.6
2017-10-20T04:06:40.860Z,70.5
2017-10-20T04:07:43.268Z,70.5
2017-10-20T04:08:45.689Z,70.4
2017-10-20T04:09:48.071Z,70.5
2017-10-20T04:10:50.462Z,70.3
2017-10-20T04:11:52.839Z,70.4
2017-10-20T04:12:55.587Z,70.4
2017-10-20T04:13:57.976Z,70.3
2017-10-20T04:15:00.348Z,70.4
2017-10-20T04:16:02.767Z,70.4
2017-10-20T04:17:05.146Z,70.5
2017-10-20T04:18:07.573Z,70.5
2017-10-20T04:19:09.994Z,70.5
2017-10-20T04:20:12.362Z,70.5
2017-10-20T04:21:14.780Z,70.5
2017-10-20T04:22:17.591Z,70.6
2017-10-20T04:23:19.983Z,70.6
2017-10-20T04:24:22.383Z,70.6
2017-10-20T04:25:24.790Z,70.7
2017-10-20T04:26:27.167Z,70.7
2017-10-20T04:27:29.590Z,70.6
2017-10-20T04:28:31.951Z,70.5
2017-10-20T04:29:34.717Z,70.5
2017-10-20T04:30:37.181Z,70.5
2017-10-20T04:31:39.970Z,70.3
2017-10-20T04:32:42.356Z,70.4
2017-10-20T04:33:44.772Z,70.5
2017-10-20T04:34:47.585Z,70.5
2017-10-20T04:35:49.954Z,70.5
2017-10-20T04:36:52.364Z,70.5
2017-10-20T04:37:54.781Z,70.5
2017-10-20T04:38:57.157Z,70.5
2017-10-20T04:39:59.588Z,70.6
2017-10-20T04:41:02.300Z,70.6
2017-10-20T04:42:04.744Z,70.6
2017-10-20T04:43:07.167Z,70.7
2017-10-20T04:44:09.556Z,70.7
2017-10-20T04:45:11.963Z,70.5
2017-10-20T04:46:14.345Z,70.5
2017-10-20T04:47:16.757Z,70.6
2017-10-20T04:48:19.175Z,70.6
2017-10-20T04:49:21.546Z,70.7
2017-10-20T04:50:23.931Z,70.7
2017-10-20T04:51:26.293Z,70.7
2017-10-20T04:52:28.665Z,70.9
2017-10-20T04:53:31.033Z,70.7
2017-10-20T04:54:33.400Z,70.7
2017-10-20T04:55:35.973Z,70.7
2017-10-20T04:56:38.349Z,70.8
2017-10-20T04:57:40.725Z,70.8
2017-10-20T04:58:43.100Z,70.8
2017-10-20T04:59:45.474Z,70.8
2017-10-20T05:00:47.852Z,70.8
2017-10-20T05:01:50.283Z,70.8
2017-10-20T05:02:52.802Z,70.8
2017-10-20T05:03:55.170Z,70.8
2017-10-20T05:04:57.563Z,70.8
2017-10-20T05:05:59.933Z,70.8
2017-10-20T05:07:02.458Z,70.8
2017-10-20T05:08:05.032Z,70.9
2017-10-20T05:09:07.407Z,70.9
2017-10-20T05:10:09.765Z,70.9
2017-10-20T05:11:12.151Z,70.9
2017-10-20T05:12:14.807Z,70.9
2017-10-20T05:13:17.205Z,70.9
2017-10-20T05:14:19.938Z,70.9
2017-10-20T05:15:22.309Z,71
2017-10-20T05:16:24.685Z,70.9
2017-10-20T05:17:27.327Z,71.1
2017-10-20T05:18:29.692Z,71
2017-10-20T05:19:32.060Z,71.1
2017-10-20T05:20:34.437Z,71.1
2017-10-20T05:21:37.101Z,71.1
2017-10-20T05:22:39.476Z,71
2017-10-20T05:23:41.843Z,71
2017-10-20T05:24:44.218Z,71.1
2017-10-20T05:25:46.589Z,71.1
2017-10-20T05:26:48.975Z,71.2
2017-10-20T05:27:51.644Z,71.3
2017-10-20T05:28:54.003Z,71.1
2017-10-20T05:29:57.478Z,71.3
2017-10-20T05:30:59.853Z,71.3
2017-10-20T05:32:02.228Z,71.3
2017-10-20T05:33:04.989Z,71.3
2017-10-20T05:34:08.035Z,71.3
2017-10-20T05:35:10.395Z,71.3
2017-10-20T05:36:12.777Z,71.4
2017-10-20T05:37:15.493Z,71.3
2017-10-20T05:38:17.875Z,71.4
2017-10-20T05:39:20.530Z,71.4
2017-10-20T05:40:22.910Z,71.4
2017-10-20T05:41:25.617Z,71.5
2017-10-20T05:42:27.993Z,71.5
2017-10-20T05:43:30.713Z,71.5
2017-10-20T05:44:33.094Z,71.4
2017-10-20T05:45:35.458Z,71.3
2017-10-20T05:46:38.086Z,71.2
2017-10-20T05:47:40.463Z,71.2
2017-10-20T05:48:43.192Z,71.2
2017-10-20T05:49:45.573Z,71.3
2017-10-20T05:50:47.952Z,71.2
2017-10-20T05:51:50.315Z,71.2
2017-10-20T05:52:52.703Z,71.3
2017-10-20T05:53:55.329Z,71.5
2017-10-20T05:54:57.700Z,71.5
2017-10-20T05:56:00.279Z,71.6
2017-10-20T05:57:02.644Z,71.5
2017-10-20T05:58:05.010Z,71.6
2017-10-20T05:59:07.400Z,71.5
2017-10-20T06:00:09.767Z,71.7
2017-10-20T06:01:12.197Z,71.7
2017-10-20T06:02:14.578Z,71.6
2017-10-20T06:03:16.947Z,71.7
2017-10-20T06:04:19.623Z,71.7
2017-10-20T06:05:22.022Z,71.8
2017-10-20T06:06:24.373Z,71.8
2017-10-20T06:07:26.747Z,71.9
2017-10-20T06:08:29.123Z,71.8
2017-10-20T06:09:32.223Z,71.8
2017-10-20T06:10:34.940Z,71.8
2017-10-20T06:11:37.305Z,71.8
2017-10-20T06:12:39.680Z,71.9
2017-10-20T06:13:42.359Z,71.9
2017-10-20T06:14:44.732Z,71.8
2017-10-20T06:15:47.107Z,71.7
2017-10-20T06:16:49.476Z,71.7
2017-10-20T06:17:51.904Z,71.7
2017-10-20T06:18:54.321Z,71.6
2017-10-20T06:19:56.666Z,71.7
2017-10-20T06:20:59.039Z,71.6
2017-10-20T06:22:01.431Z,71.6
2017-10-20T06:23:03.801Z,71.6
2017-10-20T06:24:06.188Z,71.6
2017-10-20T06:25:08.571Z,71.6
2017-10-20T06:26:10.944Z,71.7
2017-10-20T06:27:13.323Z,71.7
2017-10-20T06:28:15.708Z,71.7
2017-10-20T06:29:18.077Z,71.8
2017-10-20T06:30:20.865Z,71.9
2017-10-20T06:31:23.228Z,71.7
2017-10-20T06:32:25.596Z,71.7
2017-10-20T06:33:27.991Z,71.7
2017-10-20T06:34:30.670Z,71.7
2017-10-20T06:35:33.041Z,71.7
2017-10-20T06:36:35.412Z,71.7
2017-10-20T06:37:37.805Z,71.9
2017-10-20T06:38:40.314Z,71.9
2017-10-20T06:39:42.692Z,71.9
2017-10-20T06:40:45.068Z,72
2017-10-20T06:41:47.857Z,72
2017-10-20T06:42:50.213Z,71.9
2017-10-20T06:43:52.606Z,71.7
2017-10-20T06:44:54.973Z,71.9
2017-10-20T06:45:57.600Z,71.8
2017-10-20T06:46:59.982Z,71.8
2017-10-20T06:48:02.371Z,71.6
2017-10-20T06:49:05.170Z,71.6
2017-10-20T06:50:07.712Z,71.6
2017-10-20T06:51:10.091Z,71.5
2017-10-20T06:52:12.474Z,71.5
2017-10-20T06:53:14.863Z,71.5
2017-10-20T06:54:17.454Z,71.4
2017-10-20T06:55:19.853Z,71.6
2017-10-20T06:56:22.234Z,71.7
2017-10-20T06:57:24.664Z,71.7
2017-10-20T06:58:27.562Z,71.7
2017-10-20T06:59:30.106Z,71.6
2017-10-20T07:00:34.218Z,71.6
2017-10-20T07:01:36.635Z,71.6
2017-10-20T07:02:39.036Z,71.4
2017-10-20T07:03:43.811Z,71.5
2017-10-20T07:04:52.090Z,71.4
2017-10-20T07:06:00.732Z,71.4
2017-10-20T07:07:10.954Z,71.7
2017-10-20T07:08:21.325Z,71.7
2017-10-20T07:09:31.119Z,71.7
2017-10-20T07:10:41.631Z,71.8
2017-10-20T07:11:48.274Z,72
2017-10-20T07:13:00.227Z,72.1
2017-10-20T07:14:11.985Z,72.2
2017-10-20T07:15:24.525Z,72.1
2017-10-20T07:16:36.431Z,72.3
2017-10-20T07:17:50.163Z,72.5
2017-10-20T07:19:15.416Z,72.9
2017-10-20T07:20:27.028Z,72.9
2017-10-20T07:21:37.589Z,73.1
2017-10-20T07:22:48.231Z,73.3
2017-10-20T07:23:59.061Z,73.3
2017-10-20T07:25:10.182Z,73.4
2017-10-20T07:26:20.576Z,73.5
2017-10-20T07:27:28.637Z,73.7
2017-10-20T07:28:31.032Z,73.9
2017-10-20T07:29:33.480Z,73.7
2017-10-20T07:30:35.884Z,73.6
2017-10-20T07:31:38.266Z,73.4
2017-10-20T07:32:40.784Z,73.4
2017-10-20T07:33:43.669Z,73.4
2017-10-20T07:34:46.126Z,73.3
2017-10-20T07:35:48.894Z,73
2017-10-20T07:36:51.600Z,73.1
2017-10-20T07:37:54.009Z,72.8
2017-10-20T07:38:56.403Z,72.2
2017-10-20T07:39:58.822Z,71.8
2017-10-20T07:41:01.231Z,71.6
2017-10-20T07:42:03.975Z,71.3
2017-10-20T07:43:06.470Z,70.9
2017-10-20T07:44:08.858Z,70.5
2017-10-20T07:45:11.616Z,70.3
2017-10-20T07:46:13.993Z,70.8
2017-10-20T07:47:16.374Z,70.9
2017-10-20T07:48:18.843Z,70.9
2017-10-20T07:49:21.573Z,70.5
2017-10-20T07:50:23.952Z,70.3
2017-10-20T07:51:26.338Z,70.2
2017-10-20T07:52:28.834Z,70.4
2017-10-20T07:53:31.580Z,70.5
2017-10-20T07:54:33.969Z,70.3
2017-10-20T07:55:36.361Z,70
2017-10-20T07:56:38.949Z,69.8
2017-10-20T07:57:41.675Z,69.7
2017-10-20T07:58:44.088Z,69.7
2017-10-20T07:59:47.022Z,69.5
2017-10-20T08:00:49.404Z,69.4
2017-10-20T08:01:51.846Z,69.4
2017-10-20T08:02:54.309Z,69.4
2017-10-20T08:03:56.703Z,69.4
2017-10-20T08:04:59.094Z,69.4
2017-10-20T08:06:01.484Z,69.4
2017-10-20T08:07:04.236Z,69.5
2017-10-20T08:08:06.896Z,69.5
2017-10-20T08:09:09.294Z,69.5
2017-10-20T08:10:11.659Z,69.5
2017-10-20T08:11:14.041Z,69.6
2017-10-20T08:12:16.670Z,69.5
2017-10-20T08:13:19.122Z,69.6
2017-10-20T08:14:21.486Z,69.8
2017-10-20T08:15:24.037Z,69.9
2017-10-20T08:16:26.548Z,70
2017-10-20T08:17:28.942Z,70
2017-10-20T08:18:31.334Z,69.9
2017-10-20T08:19:34.009Z,69.9
2017-10-20T08:20:36.451Z,70
2017-10-20T08:21:38.834Z,69.8
2017-10-20T08:22:41.208Z,69.6
2017-10-20T08:23:43.925Z,69.5
2017-10-20T08:24:46.322Z,69.5
2017-10-20T08:25:48.758Z,69.6
2017-10-20T08:26:51.137Z,69.5
2017-10-20T08:27:53.518Z,69.6
2017-10-20T08:28:55.899Z,69.6
2017-10-20T08:29:58.301Z,69.7
2017-10-20T08:31:00.770Z,69.7
2017-10-20T08:32:03.142Z,69.8
2017-10-20T08:33:05.513Z,69.8
2017-10-20T08:34:07.932Z,69.9
2017-10-20T08:35:10.348Z,70
2017-10-20T08:36:12.776Z,70
2017-10-20T08:37:15.433Z,70
2017-10-20T08:38:17.935Z,69.8
2017-10-20T08:39:20.310Z,69.7
2017-10-20T08:40:22.699Z,69.7
2017-10-20T08:41:25.088Z,69.7
2017-10-20T08:42:27.489Z,69.6
2017-10-20T08:43:29.877Z,69.7
2017-10-20T08:44:32.270Z,69.7
2017-10-20T08:45:34.637Z,69.7
2017-10-20T08:46:37.024Z,69.7
2017-10-20T08:47:39.444Z,69.8
2017-10-20T08:48:41.830Z,69.8
2017-10-20T08:49:44.273Z,69.6
2017-10-20T08:50:46.679Z,69.6
2017-10-20T08:51:49.045Z,69.6
2017-10-20T08:52:51.463Z,69.4
2017-10-20T08:53:53.849Z,69.3
2017-10-20T08:54:56.247Z,69.3
2017-10-20T08:55:59.011Z,69.1
2017-10-20T08:57:01.405Z,69.2
2017-10-20T08:58:03.816Z,69.1
2017-10-20T08:59:06.289Z,69
2017-10-20T09:00:09.069Z,68.9
2017-10-20T09:01:11.508Z,68.9
2017-10-20T09:02:13.939Z,68.8
2017-10-20T09:03:16.326Z,68.9
2017-10-20T09:04:18.742Z,68.9
2017-10-20T09:05:21.156Z,69.1
2017-10-20T09:06:23.595Z,69.1
2017-10-20T09:07:26.031Z,69.1
2017-10-20T09:08:28.460Z,69
2017-10-20T09:09:31.269Z,69
2017-10-20T09:10:33.713Z,68.9
2017-10-20T09:11:36.140Z,68.8
2017-10-20T09:12:38.584Z,68.8
2017-10-20T09:13:41.019Z,68.8
2017-10-20T09:14:43.472Z,68.9
2017-10-20T09:15:45.921Z,68.9
2017-10-20T09:16:48.481Z,68.9
2017-10-20T09:17:50.919Z,68.9
2017-10-20T09:18:53.712Z,68.8
2017-10-20T09:19:56.198Z,68.9
2017-10-20T09:20:58.676Z,68.9
2017-10-20T09:22:01.109Z,68.9
2017-10-20T09:23:03.536Z,68.9
2017-10-20T09:24:05.971Z,68.9
2017-10-20T09:25:08.473Z,69
2017-10-20T09:26:10.962Z,69
2017-10-20T09:27:13.394Z,69
2017-10-20T09:28:15.892Z,69.2
2017-10-20T09:29:18.322Z,69.1
2017-10-20T09:30:20.801Z,69
2017-10-20T09:31:26.271Z,68.9
2017-10-20T09:32:28.698Z,69
2017-10-20T09:33:31.133Z,69.1
2017-10-20T09:34:33.575Z,69
2017-10-20T09:35:36.000Z,69.1
2017-10-20T09:36:38.440Z,69.2
2017-10-20T09:37:41.231Z,69.1
2017-10-20T09:38:43.662Z,69.1
2017-10-20T09:39:46.094Z,68.9
2017-10-20T09:40:48.528Z,68.9
2017-10-20T09:41:50.971Z,68.8
2017-10-20T09:42:53.407Z,68.8
2017-10-20T09:43:55.846Z,68.9
2017-10-20T09:44:58.286Z,68.8
2017-10-20T09:46:00.736Z,68.9
2017-10-20T09:47:03.173Z,68.9
2017-10-20T09:48:06.014Z,68.7
2017-10-20T09:49:08.787Z,68.7
2017-10-20T09:50:11.230Z,68.7
2017-10-20T09:51:13.679Z,68.7
2017-10-20T09:52:16.116Z,68.8
2017-10-20T09:53:18.548Z,68.8
2017-10-20T09:54:20.980Z,68.8
2017-10-20T09:55:23.416Z,68.8
2017-10-20T09:56:25.855Z,68.9
2017-10-20T09:57:28.295Z,68.9
2017-10-20T09:58:30.722Z,68.9
2017-10-20T09:59:33.166Z,68.9
2017-10-20T10:00:35.943Z,69
2017-10-20T10:01:38.384Z,69.1
2017-10-20T10:02:40.814Z,69
2017-10-20T10:03:43.608Z,69.1
2017-10-20T10:04:46.437Z,69.1
2017-10-20T10:05:48.925Z,69
2017-10-20T10:06:51.350Z,68.9
2017-10-20T10:07:53.776Z,69
2017-10-20T10:08:56.216Z,68.9
2017-10-20T10:09:59.036Z,69.1
2017-10-20T10:11:01.462Z,69.1
2017-10-20T10:12:03.895Z,69
2017-10-20T10:13:06.427Z,69.2
2017-10-20T10:14:08.856Z,69.1
2017-10-20T10:15:11.452Z,69.2
2017-10-20T10:16:13.886Z,69.2
2017-10-20T10:17:16.314Z,69.3
2017-10-20T10:18:18.756Z,69.3
2017-10-20T10:19:21.190Z,69.2
2017-10-20T10:20:23.753Z,69.2
2017-10-20T10:21:26.186Z,69.2
2017-10-20T10:22:28.623Z,69.1
2017-10-20T10:23:31.059Z,69.2
2017-10-20T10:24:34.013Z,69.2
2017-10-20T10:25:36.798Z,69.3
2017-10-20T10:26:39.231Z,69.3
2017-10-20T10:27:42.297Z,69.3
2017-10-20T10:28:44.722Z,69.3
2017-10-20T10:29:47.265Z,69.4
2017-10-20T10:30:49.700Z,69.3
2017-10-20T10:31:52.223Z,69.2
2017-10-20T10:32:54.648Z,69.2
2017-10-20T10:33:57.094Z,69.3
2017-10-20T10:34:59.665Z,69.2
2017-10-20T10:36:02.099Z,69.1
2017-10-20T10:37:04.542Z,69.2
2017-10-20T10:38:06.985Z,69.2
2017-10-20T10:39:09.400Z,69.1
2017-10-20T10:40:12.042Z,69.1
2017-10-20T10:41:14.481Z,69.2
2017-10-20T10:42:16.919Z,69.2
2017-10-20T10:43:19.346Z,69.3
2017-10-20T10:44:21.774Z,69.3
2017-10-20T10:45:24.436Z,69.3
2017-10-20T10:46:26.882Z,69.3
2017-10-20T10:47:29.470Z,69.2
2017-10-20T10:48:31.904Z,69.3
2017-10-20T10:49:34.417Z,69.3
2017-10-20T10:50:36.860Z,69.3
2017-10-20T10:51:39.293Z,69.2
2017-10-20T10:52:41.867Z,69.1
2017-10-20T10:53:44.650Z,69
2017-10-20T10:54:47.091Z,69.1
2017-10-20T10:55:49.894Z,69.1
2017-10-20T10:56:52.672Z,69.1
2017-10-20T10:57:55.500Z,69.1
2017-10-20T10:58:57.989Z,68.9
2017-10-20T11:00:00.457Z,68.9
2017-10-20T11:01:03.255Z,68.9
2017-10-20T11:02:05.691Z,69
2017-10-20T11:03:08.707Z,68.9
2017-10-20T11:04:11.144Z,69
2017-10-20T11:05:13.582Z,68.9
2017-10-20T11:06:16.134Z,68.8
2017-10-20T11:07:18.940Z,69
2017-10-20T11:08:21.948Z,68.9
2017-10-20T11:09:24.372Z,68.8
2017-10-20T11:10:26.807Z,68.6
2017-10-20T11:11:29.228Z,68.6
2017-10-20T11:12:31.679Z,68.6
2017-10-20T11:13:34.345Z,68.7
2017-10-20T11:14:37.149Z,68.7
2017-10-20T11:15:39.752Z,68.7
2017-10-20T11:16:42.187Z,68.7
2017-10-20T11:17:44.993Z,68.8
2017-10-20T11:18:47.432Z,68.7
2017-10-20T11:19:49.858Z,68.6
2017-10-20T11:20:52.377Z,68.6
2017-10-20T11:21:54.805Z,68.6
2017-10-20T11:22:57.245Z,68.7
2017-10-20T11:23:59.688Z,68.8
2017-10-20T11:25:02.155Z,68.8
2017-10-20T11:26:04.658Z,68.8
2017-10-20T11:27:07.104Z,68.7
2017-10-20T11:28:09.683Z,68.7
2017-10-20T11:29:12.104Z,68.7
2017-10-20T11:30:14.639Z,68.7
2017-10-20T11:31:17.054Z,68.7
2017-10-20T11:32:19.501Z,68.7
2017-10-20T11:33:22.067Z,68.7
2017-10-20T11:34:24.499Z,68.7
2017-10-20T11:35:26.934Z,68.6
2017-10-20T11:36:29.368Z,68.6
2017-10-20T11:37:31.983Z,68.4
2017-10-20T11:38:34.705Z,68.6
2017-10-20T11:39:37.636Z,68.7
2017-10-20T11:40:40.065Z,68.6
2017-10-20T11:41:42.505Z,68.7
2017-10-20T11:42:44.936Z,68.7
2017-10-20T11:43:48.112Z,68.6
2017-10-20T11:44:50.715Z,68.6
2017-10-20T11:45:53.625Z,68.5
2017-10-20T11:46:56.024Z,68.3
2017-10-20T11:47:58.465Z,68.2
2017-10-20T11:49:00.895Z,68.2
2017-10-20T11:50:03.349Z,68.2
2017-10-20T11:51:06.736Z,68.3
2017-10-20T11:52:10.807Z,68.2
2017-10-20T11:53:18.811Z,68.2
2017-10-20T11:54:27.319Z,68.2
2017-10-20T11:55:36.441Z,68.2
2017-10-20T11:56:42.326Z,68.1
2017-10-20T11:57:48.944Z,68
2017-10-20T11:58:59.307Z,67.9
2017-10-20T12:00:03.504Z,67.9
2017-10-20T12:01:06.141Z,67.9
2017-10-20T12:02:08.584Z,68
2017-10-20T12:03:11.397Z,68
2017-10-20T12:04:14.154Z,68.1
2017-10-20T12:05:16.818Z,68.1
2017-10-20T12:06:20.621Z,68
2017-10-20T12:07:23.860Z,68.1
2017-10-20T12:08:27.167Z,68.2
2017-10-20T12:09:32.074Z,68.1
2017-10-20T12:10:36.405Z,68.2
2017-10-20T12:11:42.193Z,68.1
2017-10-20T12:12:45.988Z,68.1
2017-10-20T12:13:51.443Z,68.1
2017-10-20T12:14:57.143Z,68.1
2017-10-20T12:16:02.723Z,68.2
2017-10-20T12:17:08.888Z,68.1
2017-10-20T12:18:15.985Z,68.1
2017-10-20T12:19:22.568Z,68
2017-10-20T12:20:27.901Z,68
2017-10-20T12:21:30.864Z,68.1
2017-10-20T12:22:34.957Z,68
2017-10-20T12:23:40.264Z,67.9
2017-10-20T12:24:48.325Z,67.8
2017-10-20T12:25:54.399Z,67.9
2017-10-20T12:26:59.226Z,68
2017-10-20T12:28:01.615Z,67.9
2017-10-20T12:29:04.060Z,67.9
2017-10-20T12:30:06.429Z,68
2017-10-20T12:31:22.092Z,67.9
2017-10-20T12:32:24.514Z,67.8
2017-10-20T12:33:26.953Z,67.8
2017-10-20T12:34:29.403Z,67.9
2017-10-20T12:35:31.833Z,67.8
2017-10-20T12:36:34.277Z,68
2017-10-20T12:37:36.715Z,68
2017-10-20T12:38:39.179Z,68
2017-10-20T12:39:41.614Z,67.9
2017-10-20T12:40:44.042Z,67.8
2017-10-20T12:41:46.853Z,67.9
2017-10-20T12:42:49.299Z,67.9
2017-10-20T12:43:51.744Z,68
2017-10-20T12:44:54.185Z,68
2017-10-20T12:45:56.638Z,68
2017-10-20T12:46:59.122Z,67.9
2017-10-20T12:48:01.557Z,67.8
2017-10-20T12:49:04.364Z,67.8
2017-10-20T12:50:06.819Z,67.8
2017-10-20T12:51:09.620Z,67.8
2017-10-20T12:52:12.062Z,67.8
2017-10-20T12:53:14.517Z,67.8
2017-10-20T12:54:17.329Z,67.8
2017-10-20T12:55:19.756Z,67.8
2017-10-20T12:56:22.216Z,67.9
2017-10-20T12:57:24.657Z,68
2017-10-20T12:58:27.090Z,68.1
2017-10-20T12:59:29.571Z,68.1
2017-10-20T13:00:32.369Z,68
2017-10-20T13:01:34.831Z,67.9
2017-10-20T13:02:37.286Z,68
2017-10-20T13:03:39.710Z,68
2017-10-20T13:04:42.149Z,68
2017-10-20T13:05:44.967Z,68
2017-10-20T13:06:47.402Z,67.9
2017-10-20T13:07:50.368Z,67.9
2017-10-20T13:08:52.821Z,67.9
2017-10-20T13:09:55.278Z,67.9
2017-10-20T13:10:57.711Z,67.9
2017-10-20T13:12:00.161Z,67.8
2017-10-20T13:13:02.614Z,67.7
2017-10-20T13:14:05.063Z,67.8
2017-10-20T13:15:07.501Z,67.7
2017-10-20T13:16:10.627Z,67.8
2017-10-20T13:17:13.037Z,67.7
2017-10-20T13:18:15.426Z,67.8
2017-10-20T13:19:17.843Z,67.8
2017-10-20T13:20:20.513Z,67.8
2017-10-20T13:21:22.903Z,67.7
2017-10-20T13:22:25.282Z,67.7
2017-10-20T13:23:27.663Z,67.7
2017-10-20T13:24:30.044Z,67.8
2017-10-20T13:25:32.424Z,67.7
2017-10-20T13:26:34.804Z,67.7
2017-10-20T13:27:37.197Z,67.7
2017-10-20T13:28:39.573Z,67.7
2017-10-20T13:29:42.814Z,67.7
2017-10-20T13:30:45.358Z,67.8
2017-10-20T13:31:48.184Z,67.8
2017-10-20T13:32:50.568Z,67.8
2017-10-20T13:33:52.952Z,67.9
2017-10-20T13:34:55.340Z,67.8
2017-10-20T13:35:57.736Z,67.8
2017-10-20T13:37:00.103Z,67.8
2017-10-20T13:38:02.490Z,67.8
2017-10-20T13:39:04.880Z,67.8
2017-10-20T13:40:07.254Z,67.8
2017-10-20T13:41:10.009Z,67.8
2017-10-20T13:42:12.371Z,67.9
2017-10-20T13:43:14.764Z,67.7
2017-10-20T13:44:17.571Z,67.7
2017-10-20T13:45:20.000Z,67.6
2017-10-20T13:46:22.424Z,67.6
2017-10-20T13:47:24.866Z,67.5
2017-10-20T13:48:27.312Z,67.5
2017-10-20T13:49:29.745Z,67.4
2017-10-20T13:50:33.042Z,67.6
2017-10-20T13:51:35.475Z,67.7
2017-10-20T13:52:38.279Z,67.7
2017-10-20T13:53:40.753Z,67.6
2017-10-20T13:54:43.226Z,67.6
2017-10-20T13:55:45.685Z,67.6
2017-10-20T13:56:48.138Z,67.6
2017-10-20T13:57:50.571Z,67.6
2017-10-20T13:58:53.026Z,67.6
2017-10-20T13:59:55.531Z,67.6
2017-10-20T14:00:57.956Z,67.6